Time;durP1;ratioP1;P1;durP2;ratioP2;P2;SDS_P1;SDS_P2;PMS_P1;PMS_P2;Temp;Humidity;BMP_temperature;BMP_pressure;BME280_temperature;BME280_humidity;BME280_pressure;Samples;Min_cycle;Max_cycle;Signal;HPM_P1;HPM_P2
2021/10/11 00:01:51;;;;;;;11.50;6.80;;;;;;;2.32;66.86;98019.88;116290;1183;59589;-70
2021/10/11 00:04:20;;;;;;;14.20;7.00;;;;;;;2.28;66.65;98014.58;116531;1181;71415;-69
2021/10/11 00:06:50;;;;;;;15.70;7.00;;;;;;;2.24;67.02;98011.58;116535;1181;67631;-73
2021/10/11 00:09:19;;;;;;;11.60;6.50;;;;;;;2.22;67.03;98011.25;116425;1182;69287;-73
2021/10/11 00:11:48;;;;;;;15.30;6.50;;;;;;;2.20;67.20;98009.35;116378;1182;59625;-67
2021/10/11 00:14:18;;;;;;;12.40;6.70;;;;;;;2.15;67.41;98009.36;116501;1181;59570;-71
2021/10/11 00:16:48;;;;;;;11.70;6.30;;;;;;;2.09;67.57;98006.70;116452;1182;70651;-74
2021/10/11 00:19:18;;;;;;;13.40;6.40;;;;;;;2.05;67.64;98010.25;116470;1182;68579;-70
2021/10/11 00:21:48;;;;;;;13.10;6.60;;;;;;;2.01;68.51;98008.95;116475;1181;69374;-67
2021/10/11 00:24:17;;;;;;;11.40;6.00;;;;;;;1.97;68.58;98007.33;116252;1182;59599;-72
2021/10/11 00:26:47;;;;;;;14.80;6.50;;;;;;;1.94;69.38;98003.60;116520;1181;59625;-74
2021/10/11 00:29:17;;;;;;;10.60;6.10;;;;;;;1.92;69.88;98000.15;116434;1182;70769;-71
2021/10/11 00:31:47;;;;;;;12.60;6.00;;;;;;;1.91;70.11;98002.02;116404;1177;68170;-68
2021/10/11 00:34:17;;;;;;;11.90;6.20;;;;;;;1.90;69.44;97998.33;116482;1174;69187;-68
2021/10/11 00:36:46;;;;;;;11.90;6.20;;;;;;;1.90;68.36;97994.27;116411;1182;59663;-74
2021/10/11 00:39:16;;;;;;;12.60;6.50;;;;;;;1.89;68.89;97992.30;116511;1181;59515;-71
2021/10/11 00:41:46;;;;;;;12.30;6.30;;;;;;;1.88;68.24;97988.39;116501;1182;70583;-67
2021/10/11 00:44:16;;;;;;;14.00;6.40;;;;;;;1.87;67.95;97984.33;116552;1182;68366;-76
2021/10/11 00:46:48;;;;;;;12.70;6.10;;;;;;;1.86;68.74;97985.64;116368;1182;68273;-70
2021/10/11 00:49:17;;;;;;;8.90;5.00;;;;;;;1.84;69.26;97982.66;116456;1182;59451;-75
2021/10/11 00:51:47;;;;;;;14.00;6.30;;;;;;;1.83;70.22;97978.65;116510;1180;59465;-74
2021/10/11 00:54:18;;;;;;;10.00;5.40;;;;;;;1.83;69.93;97975.38;116488;1182;72398;-72
2021/10/11 00:56:50;;;;;;;12.40;6.00;;;;;;;1.82;69.72;97969.98;116450;1179;68353;-74
2021/10/11 00:59:19;;;;;;;13.10;6.60;;;;;;;1.84;68.57;97966.97;116477;1182;69047;-70
2021/10/11 01:01:50;;;;;;;14.20;6.70;;;;;;;1.87;68.14;97968.32;116492;1177;59643;-70
2021/10/11 01:04:20;;;;;;;;;;;;;;;1.91;68.00;97966.04;116632;1180;59542;-69
2021/10/11 01:06:49;;;;;;;12.50;6.50;;;;;;;1.94;67.65;97962.64;116514;1182;70565;-75
2021/10/11 01:09:19;;;;;;;13.40;7.20;;;;;;;1.98;67.41;97963.01;116324;1182;67663;-73
2021/10/11 01:11:50;;;;;;;13.80;6.80;;;;;;;1.97;67.34;97963.69;116464;1181;69299;-68
2021/10/11 01:14:19;;;;;;;12.10;6.30;;;;;;;1.95;67.49;97962.10;116533;1182;59585;-74
2021/10/11 01:16:49;;;;;;;15.30;6.90;;;;;;;1.93;67.31;97961.85;116492;1181;60371;-68
2021/10/11 01:19:19;;;;;;;11.30;6.50;;;;;;;1.90;67.44;97954.40;116474;1182;70653;-72
2021/10/11 01:21:48;;;;;;;9.90;5.90;;;;;;;1.87;67.53;97954.91;116512;1183;66890;-71
2021/10/11 01:24:18;;;;;;;12.20;6.20;;;;;;;1.84;67.35;97953.08;116354;1182;68517;-73
2021/10/11 01:26:47;;;;;;;13.60;6.70;;;;;;;1.81;68.68;97947.27;116481;1182;59540;-69
2021/10/11 01:29:18;;;;;;;12.70;6.40;;;;;;;1.79;67.87;97944.02;116482;1182;60527;-70
2021/10/11 01:31:49;;;;;;;14.70;6.30;;;;;;;1.79;68.14;97946.12;116336;1182;70451;-71
2021/10/11 01:34:19;;;;;;;11.10;6.20;;;;;;;1.78;68.43;97941.35;116443;1182;67084;-70
2021/10/11 01:36:49;;;;;;;13.70;6.50;;;;;;;1.76;67.51;97932.20;116412;1182;68095;-70
2021/10/11 01:39:18;;;;;;;11.50;6.90;;;;;;;1.74;68.18;97926.95;116482;1182;59523;-67
2021/10/11 01:41:49;;;;;;;11.60;6.20;;;;;;;1.71;68.21;97922.09;116392;1182;59675;-71
2021/10/11 01:44:19;;;;;;;;;;;;;;;1.65;69.51;97922.46;116480;1182;70453;-66
2021/10/11 01:46:48;;;;;;;10.80;5.80;;;;;;;1.59;69.95;97920.97;116589;1181;67795;-72
2021/10/11 01:49:18;;;;;;;16.40;7.20;;;;;;;1.54;70.44;97920.05;116608;1181;69254;-74
2021/10/11 01:51:48;;;;;;;12.20;6.30;;;;;;;1.48;69.01;97916.94;116433;1182;59543;-72
2021/10/11 01:54:18;;;;;;;13.90;6.70;;;;;;;1.44;68.99;97917.34;116584;1181;59551;-76
2021/10/11 01:56:47;;;;;;;14.60;5.60;;;;;;;1.39;69.83;97911.58;116457;1181;70591;-74
2021/10/11 01:59:17;;;;;;;10.80;5.10;;;;;;;1.34;69.50;97910.56;116518;1177;66634;-71
2021/10/11 02:01:48;;;;;;;11.90;5.60;;;;;;;1.29;71.79;97911.13;116440;1177;68456;-71
2021/10/11 02:04:17;;;;;;;11.40;6.10;;;;;;;1.26;72.10;97913.82;116430;1182;59481;-72
2021/10/11 02:06:47;;;;;;;15.60;6.70;;;;;;;1.26;71.72;97915.61;116527;1181;59597;-69
2021/10/11 02:09:17;;;;;;;24.70;6.80;;;;;;;1.28;70.66;97911.89;116246;1182;71415;-68
2021/10/11 02:11:46;;;;;;;11.60;5.30;;;;;;;1.35;70.76;97907.93;116247;1182;67230;-74
2021/10/11 02:14:16;;;;;;;13.70;6.90;;;;;;;1.38;71.00;97908.52;116483;1184;69063;-72
2021/10/11 02:16:46;;;;;;;13.20;6.10;;;;;;;1.44;69.99;97910.55;116472;1182;59552;-73
2021/10/11 02:19:16;;;;;;;14.60;5.90;;;;;;;1.48;69.70;97907.58;116418;1176;59535;-71
2021/10/11 02:21:46;;;;;;;10.00;5.40;;;;;;;1.47;70.29;97911.39;116470;1181;70609;-71
2021/10/11 02:24:18;;;;;;;12.30;6.60;;;;;;;1.43;70.24;97907.73;116431;1182;68378;-71
2021/10/11 02:26:48;;;;;;;15.90;6.30;;;;;;;1.38;69.98;97906.02;116397;1181;68261;-69
2021/10/11 02:29:19;;;;;;;12.00;6.60;;;;;;;1.34;71.32;97900.36;116419;1182;59553;-70
2021/10/11 02:31:48;;;;;;;14.40;5.80;;;;;;;1.32;71.27;97901.66;116429;1182;59523;-66
2021/10/11 02:34:19;;;;;;;;;;;;;;;1.30;71.62;97902.02;116463;1181;70368;-67
2021/10/11 02:36:48;;;;;;;13.70;5.60;;;;;;;1.26;70.34;97897.84;116440;1182;67614;-74
2021/10/11 02:39:18;;;;;;;13.60;6.60;;;;;;;1.25;71.32;97897.25;116462;1182;68513;-69
2021/10/11 02:41:47;;;;;;;13.00;6.60;;;;;;;1.22;70.40;97897.29;116253;1184;59510;-71
2021/10/11 02:44:17;;;;;;;16.30;6.90;;;;;;;1.20;70.09;97893.43;116477;1182;59588;-66
2021/10/11 02:46:46;;;;;;;12.50;6.20;;;;;;;1.16;71.62;97894.95;116547;1182;72808;-67
2021/10/11 02:49:17;;;;;;;;;;;;;;;1.13;72.92;97895.92;116564;1181;67742;-70
2021/10/11 02:51:47;;;;;;;11.10;6.30;;;;;;;1.10;71.43;97897.59;116477;1182;69306;-69
2021/10/11 02:54:17;;;;;;;13.90;6.70;;;;;;;1.07;70.60;97893.16;116229;1182;59515;-76
2021/10/11 02:56:46;;;;;;;12.70;6.30;;;;;;;1.07;70.35;97893.31;116557;1182;59528;-71
2021/10/11 02:59:16;;;;;;;10.10;5.70;;;;;;;1.09;71.11;97891.34;116440;1173;71158;-69
2021/10/11 03:01:46;;;;;;;10.80;6.00;;;;;;;1.10;72.64;97893.00;116496;1176;68182;-73
2021/10/11 03:04:16;;;;;;;12.20;6.70;;;;;;;1.12;71.62;97891.31;116493;1173;69527;-71
2021/10/11 03:06:45;;;;;;;14.50;6.50;;;;;;;1.09;71.23;97889.08;116439;1182;59513;-75
2021/10/11 03:09:14;;;;;;;12.20;5.20;;;;;;;1.02;71.48;97884.75;116453;1182;59545;-73
2021/10/11 03:11:44;;;;;;;12.40;5.50;;;;;;;0.99;74.16;97879.64;116308;1182;70582;-67
2021/10/11 03:14:13;;;;;;;11.00;6.50;;;;;;;0.99;73.76;97873.34;116470;1181;68436;-72
2021/10/11 03:16:43;;;;;;;12.90;6.70;;;;;;;1.00;72.35;97868.43;116315;1182;68436;-70
2021/10/11 03:19:12;;;;;;;11.90;6.40;;;;;;;1.03;73.86;97868.41;116471;1181;59542;-70
2021/10/11 03:21:41;;;;;;;12.00;6.50;;;;;;;1.09;72.32;97862.58;116232;1183;59551;-67
2021/10/11 03:24:11;;;;;;;13.30;6.80;;;;;;;1.14;72.38;97860.16;116393;1182;70460;-73
2021/10/11 03:26:40;;;;;;;12.80;6.20;;;;;;;1.14;72.98;97855.71;116237;1182;67512;-70
2021/10/11 03:29:09;;;;;;;10.90;6.30;;;;;;;1.14;72.11;97849.55;116454;1182;69233;-72
2021/10/11 03:31:39;;;;;;;13.90;7.40;;;;;;;1.12;72.21;97846.10;116458;1181;59547;-67
2021/10/11 03:34:08;;;;;;;12.30;7.00;;;;;;;1.11;71.90;97838.63;116438;1182;59513;-71
2021/10/11 03:36:39;;;;;;;19.40;5.90;;;;;;;1.12;73.23;97834.27;116398;1182;73231;-70
2021/10/11 03:39:09;;;;;;;10.70;5.80;;;;;;;1.19;71.78;97831.15;116410;1182;66618;-67
2021/10/11 03:41:38;;;;;;;11.30;6.10;;;;;;;1.29;71.57;97826.78;116355;1177;69241;-69
2021/10/11 03:44:08;;;;;;;10.40;5.60;;;;;;;1.33;71.17;97825.27;116471;1182;59565;-69
2021/10/11 03:46:37;;;;;;;15.00;6.70;;;;;;;1.34;71.14;97822.86;116380;1182;59972;-71
2021/10/11 03:49:07;;;;;;;17.00;8.20;;;;;;;1.33;71.41;97827.54;116220;1183;71246;-70
2021/10/11 03:51:36;;;;;;;11.20;6.90;;;;;;;1.26;71.27;97828.60;116343;1183;66617;-67
2021/10/11 03:54:05;;;;;;;12.40;6.30;;;;;;;1.12;71.25;97824.59;116457;1182;69123;-70
2021/10/11 03:56:34;;;;;;;20.30;6.40;;;;;;;1.00;73.32;97822.15;116448;1182;59620;-70
2021/10/11 03:59:03;;;;;;;13.00;7.10;;;;;;;0.97;73.53;97814.33;116300;1182;59545;-72
2021/10/11 04:01:32;;;;;;;10.00;5.10;;;;;;;0.97;73.01;97816.04;116457;1181;70506;-71
2021/10/11 04:04:02;;;;;;;13.70;6.70;;;;;;;0.98;74.11;97815.11;116421;1182;68354;-74
2021/10/11 04:06:31;;;;;;;12.50;6.10;;;;;;;0.99;73.39;97812.23;116471;1181;69553;-71
2021/10/11 04:09:01;;;;;;;10.50;5.40;;;;;;;0.98;74.83;97810.90;116232;1182;59501;-74
2021/10/11 04:11:31;;;;;;;18.40;7.10;;;;;;;0.98;74.86;97811.13;116222;1183;59529;-70
2021/10/11 04:14:00;;;;;;;;;;;;;;;0.96;74.32;97804.80;116413;1182;71163;-67
2021/10/11 04:16:30;;;;;;;13.40;6.30;;;;;;;0.93;75.01;97803.98;116444;1182;68450;-70
2021/10/11 04:18:59;;;;;;;13.30;7.20;;;;;;;0.90;75.37;97800.13;116413;1182;68644;-74
2021/10/11 04:21:28;;;;;;;29.80;8.20;;;;;;;0.91;73.67;97797.19;116421;1182;59513;-68
2021/10/11 04:23:58;;;;;;;15.80;7.50;;;;;;;0.91;73.94;97795.39;116466;1181;59558;-70
2021/10/11 04:26:28;;;;;;;22.80;6.90;;;;;;;0.93;74.00;97791.91;116470;1182;71356;-70
2021/10/11 04:28:57;;;;;;;13.30;6.40;;;;;;;0.94;75.03;97793.25;116267;1183;68481;-70
2021/10/11 04:31:26;;;;;;;10.70;6.30;;;;;;;0.96;75.08;97792.65;116257;1182;68594;-72
2021/10/11 04:33:55;;;;;;;13.30;6.60;;;;;;;0.97;74.17;97783.23;116494;1182;59536;-71
2021/10/11 04:36:26;;;;;;;14.00;6.90;;;;;;;0.97;74.79;97788.84;116483;1180;59542;-71
2021/10/11 04:38:55;;;;;;;12.20;6.20;;;;;;;0.98;74.81;97790.25;116456;1182;72678;-69
2021/10/11 04:41:24;;;;;;;15.90;7.90;;;;;;;0.98;75.57;97788.93;116460;1182;67481;-68
2021/10/11 04:43:53;;;;;;;14.20;7.00;;;;;;;0.98;76.14;97790.10;116494;1182;69270;-69
2021/10/11 04:46:22;;;;;;;15.60;7.80;;;;;;;1.01;75.87;97791.85;116410;1182;59584;-70
2021/10/11 04:48:51;;;;;;;14.30;7.30;;;;;;;1.03;74.82;97791.55;116481;1182;59625;-71
2021/10/11 04:51:20;;;;;;;16.30;7.30;;;;;;;1.04;75.09;97790.17;116695;1181;71164;-72
2021/10/11 04:53:49;;;;;;;13.40;7.40;;;;;;;1.04;74.77;97788.14;116484;1182;67652;-68
2021/10/11 04:56:18;;;;;;;14.20;7.50;;;;;;;1.04;74.17;97790.25;116514;1182;69178;-69
2021/10/11 04:58:47;;;;;;;14.80;7.90;;;;;;;1.00;74.14;97791.38;116413;1182;59557;-71
2021/10/11 05:01:17;;;;;;;11.90;7.60;;;;;;;0.98;74.06;97792.84;116412;1182;59538;-73
2021/10/11 05:03:46;;;;;;;15.40;7.30;;;;;;;0.97;74.51;97794.92;116500;1182;71172;-67
2021/10/11 05:06:15;;;;;;;13.20;7.00;;;;;;;0.97;75.85;97798.35;116476;1182;68667;-72
2021/10/11 05:08:44;;;;;;;17.30;8.60;;;;;;;1.02;75.68;97796.46;116230;1182;68737;-75
2021/10/11 05:11:13;;;;;;;19.50;10.00;;;;;;;1.07;75.18;97795.14;116405;1182;59685;-76
2021/10/11 05:13:42;;;;;;;16.60;9.50;;;;;;;1.14;74.93;97794.38;116475;1182;59561;-73
2021/10/11 05:16:13;;;;;;;14.60;7.70;;;;;;;1.25;74.62;97794.05;116458;1182;70436;-70
2021/10/11 05:18:44;;;;;;;17.80;8.70;;;;;;;1.38;75.34;97793.35;116267;1182;68757;-74
2021/10/11 05:21:13;;;;;;;18.60;9.60;;;;;;;1.54;74.45;97795.27;116425;1182;68581;-72
2021/10/11 05:23:42;;;;;;;23.80;10.00;;;;;;;1.69;74.06;97795.84;116425;1182;59552;-70
2021/10/11 05:26:11;;;;;;;21.90;12.00;;;;;;;1.87;73.42;97790.96;115896;1184;59558;-70
2021/10/11 05:28:41;;;;;;;21.20;11.60;;;;;;;2.14;73.04;97787.95;115943;1184;70616;-66
2021/10/11 05:31:12;;;;;;;21.70;11.20;;;;;;;2.43;72.51;97787.73;116196;1182;67894;-72
2021/10/11 05:33:42;;;;;;;26.20;14.60;;;;;;;2.61;71.46;97786.32;116419;1181;68649;-77
2021/10/11 05:36:12;;;;;;;31.70;14.70;;;;;;;2.76;71.36;97784.73;116322;1179;59487;-76
2021/10/11 05:38:41;;;;;;;28.70;14.50;;;;;;;2.88;71.08;97785.43;116257;1182;59557;-73
2021/10/11 05:41:10;;;;;;;23.70;14.00;;;;;;;2.97;70.40;97785.72;116397;1182;71425;-69
2021/10/11 05:43:39;;;;;;;20.10;11.20;;;;;;;3.04;70.09;97781.21;116360;1182;67684;-73
2021/10/11 05:46:08;;;;;;;21.30;12.00;;;;;;;3.02;70.17;97777.14;116408;1182;68458;-71
2021/10/11 05:48:37;;;;;;;28.80;13.50;;;;;;;3.06;69.40;97775.23;116440;1182;59558;-72
2021/10/11 05:51:06;;;;;;;24.70;13.30;;;;;;;3.12;70.04;97775.34;116209;1181;59535;-72
2021/10/11 05:53:35;;;;;;;29.80;12.90;;;;;;;3.24;70.42;97776.11;116229;1182;70622;-73
2021/10/11 05:56:05;;;;;;;29.10;16.20;;;;;;;3.50;69.90;97777.71;116279;1182;68246;-71
2021/10/11 05:58:34;;;;;;;37.10;19.90;;;;;;;3.85;69.55;97772.34;116270;1182;69435;-70
2021/10/11 06:01:03;;;;;;;29.80;17.60;;;;;;;4.27;68.18;97761.06;116224;1182;59568;-72
2021/10/11 06:03:32;;;;;;;36.60;15.10;;;;;;;4.60;65.76;97764.98;116066;1184;59500;-73
2021/10/11 06:06:02;;;;;;;37.30;19.90;;;;;;;5.04;66.25;97769.02;116096;1184;69915;-72
2021/10/11 06:08:31;;;;;;;30.50;18.00;;;;;;;5.54;64.88;97765.00;116488;1182;67738;-70
2021/10/11 06:11:00;;;;;;;34.40;16.10;;;;;;;5.87;62.69;97764.55;116387;1181;68946;-70
2021/10/11 06:13:30;;;;;;;18.50;11.80;;;;;;;6.14;61.17;97765.73;116354;1184;59547;-67
2021/10/11 06:16:00;;;;;;;27.40;13.10;;;;;;;6.35;59.49;97760.64;116118;1183;59545;-72
2021/10/11 06:18:29;;;;;;;31.60;17.70;;;;;;;6.53;58.99;97759.55;116098;1183;69671;-71
2021/10/11 06:20:58;;;;;;;29.70;18.00;;;;;;;6.70;59.38;97760.29;116130;1184;68672;-69
2021/10/11 06:23:27;;;;;;;40.40;20.60;;;;;;;6.82;59.25;97762.31;116285;1182;68599;-68
2021/10/11 06:25:57;;;;;;;38.50;22.30;;;;;;;6.78;59.97;97764.08;116256;1182;59533;-69
2021/10/11 06:28:27;;;;;;;29.80;18.00;;;;;;;6.73;60.54;97763.89;116449;1181;59619;-65
2021/10/11 06:30:56;;;;;;;40.10;17.40;;;;;;;6.83;59.90;97760.88;116400;1182;71288;-72
2021/10/11 06:33:26;;;;;;;21.60;12.80;;;;;;;6.81;59.86;97761.28;116378;1182;68989;-73
2021/10/11 06:35:55;;;;;;;22.20;11.10;;;;;;;6.89;58.56;97760.67;116141;1182;69047;-69
2021/10/11 06:38:26;;;;;;;24.80;12.10;;;;;;;6.80;57.97;97761.77;116197;1182;59530;-69
2021/10/11 06:40:55;;;;;;;28.60;13.70;;;;;;;6.86;58.13;97764.33;116258;1182;59553;-73
2021/10/11 06:43:25;;;;;;;22.60;12.20;;;;;;;6.91;58.11;97764.50;116260;1182;71428;-67
2021/10/11 06:45:54;;;;;;;21.30;11.70;;;;;;;6.91;58.61;97762.23;116170;1183;68639;-69
2021/10/11 06:48:24;;;;;;;19.60;11.60;;;;;;;6.96;58.59;97762.72;116243;1177;69242;-68
2021/10/11 06:50:53;;;;;;;21.10;12.10;;;;;;;7.08;58.62;97767.17;116259;1176;59564;-66
2021/10/11 06:53:23;;;;;;;21.80;11.30;;;;;;;7.21;57.98;97766.27;116295;1182;59580;-72
2021/10/11 06:55:52;;;;;;;20.20;10.30;;;;;;;7.27;56.33;97765.16;116384;1182;70628;-69
2021/10/11 06:58:21;;;;;;;21.70;8.10;;;;;;;7.46;56.76;97759.59;116393;1182;67635;-69
2021/10/11 07:00:51;;;;;;;16.70;8.10;;;;;;;7.79;53.10;97760.30;116421;1182;68605;-69
2021/10/11 07:03:24;;;;;;;15.90;7.50;;;;;;;8.25;51.74;97754.77;116381;1181;59542;-70
2021/10/11 07:06:03;;;;;;;16.50;7.80;;;;;;;8.86;50.97;97750.33;116452;1182;59545;-73
2021/10/11 07:08:33;;;;;;;18.50;8.00;;;;;;;9.49;50.48;97750.82;116468;1182;70643;-73
2021/10/11 07:11:02;;;;;;;15.20;7.50;;;;;;;10.05;47.33;97749.33;116413;1182;67727;-71
2021/10/11 07:13:31;;;;;;;14.30;7.20;;;;;;;10.63;47.62;97747.86;116366;1182;69268;-71
2021/10/11 07:16:03;;;;;;;12.60;7.90;;;;;;;11.12;46.23;97746.69;116269;1181;59624;-71
2021/10/11 07:18:35;;;;;;;14.10;8.10;;;;;;;11.26;43.41;97746.56;116132;1184;59903;-74
2021/10/11 07:21:06;;;;;;;17.00;8.80;;;;;;;11.45;45.79;97748.02;116430;1182;70801;-70
2021/10/11 07:23:36;;;;;;;18.20;8.30;;;;;;;11.63;45.35;97746.87;116396;1182;68411;-73
2021/10/11 07:26:06;;;;;;;17.70;8.80;;;;;;;11.69;44.41;97746.64;116357;1182;69873;-70
2021/10/11 07:28:36;;;;;;;21.80;8.80;;;;;;;11.74;42.73;97741.33;116418;1182;59548;-72
2021/10/11 07:31:06;;;;;;;16.40;8.30;;;;;;;12.01;43.19;97741.91;116393;1182;59562;-69
2021/10/11 07:33:35;;;;;;;17.90;8.20;;;;;;;12.23;41.49;97736.94;116295;1182;69685;-66
2021/10/11 07:36:05;;;;;;;15.70;8.70;;;;;;;12.65;40.68;97739.58;116406;1182;68477;-72
2021/10/11 07:38:34;;;;;;;14.10;7.90;;;;;;;13.14;40.63;97736.45;116374;1182;68362;-73
2021/10/11 07:41:03;;;;;;;17.80;8.90;;;;;;;13.17;39.90;97733.80;116382;1182;59572;-65
2021/10/11 07:43:32;;;;;;;18.90;8.40;;;;;;;13.35;39.08;97732.94;116268;1182;59502;-70
2021/10/11 07:46:03;;;;;;;16.60;7.70;;;;;;;13.56;37.84;97732.98;116301;1181;70525;-70
2021/10/11 07:48:33;;;;;;;20.40;7.80;;;;;;;13.57;36.73;97729.31;116361;1182;68375;-74
2021/10/11 07:51:02;;;;;;;17.60;8.50;;;;;;;13.70;36.86;97730.16;116438;1181;67603;-70
2021/10/11 07:53:31;;;;;;;17.30;8.40;;;;;;;13.89;37.65;97721.49;116334;1182;59566;-71
2021/10/11 07:56:02;;;;;;;12.60;7.40;;;;;;;13.95;37.37;97717.29;116283;1182;59543;-74
2021/10/11 07:58:31;;;;;;;13.40;7.10;;;;;;;13.93;36.04;97715.55;116272;1182;70636;-72
2021/10/11 08:01:00;;;;;;;11.20;6.80;;;;;;;13.88;34.88;97706.73;116151;1185;68409;-71
2021/10/11 08:03:30;;;;;;;12.80;5.70;;;;;;;14.13;35.53;97703.48;116348;1182;68571;-71
2021/10/11 08:06:03;;;;;;;10.60;5.60;;;;;;;14.08;34.27;97700.41;116291;1181;59565;-72
2021/10/11 08:08:33;;;;;;;12.10;5.30;;;;;;;14.15;34.70;97698.36;116311;1181;59576;-74
2021/10/11 08:11:03;;;;;;;15.10;5.50;;;;;;;14.34;33.65;97694.30;116257;1182;71545;-73
2021/10/11 08:13:32;;;;;;;15.90;5.90;;;;;;;14.47;33.08;97688.70;116422;1182;68434;-70
2021/10/11 08:16:01;;;;;;;15.40;5.30;;;;;;;14.59;33.12;97681.60;116501;1181;69281;-72
2021/10/11 08:18:30;;;;;;;12.00;6.30;;;;;;;14.66;33.06;97679.31;116510;1182;59529;-70
2021/10/11 08:20:59;;;;;;;22.60;5.90;;;;;;;14.71;33.12;97680.04;116463;1181;59609;-74
2021/10/11 08:23:28;;;;;;;12.20;5.80;;;;;;;14.74;32.89;97675.96;116329;1182;72062;-71
2021/10/11 08:25:58;;;;;;;10.10;5.00;;;;;;;14.58;32.58;97675.34;116451;1182;67767;-74
2021/10/11 08:28:27;;;;;;;15.30;5.60;;;;;;;14.33;32.36;97675.15;116423;1182;67522;-74
2021/10/11 08:30:56;;;;;;;11.60;5.30;;;;;;;14.20;32.46;97678.91;116409;1181;59558;-73
2021/10/11 08:33:25;;;;;;;15.70;5.40;;;;;;;14.23;32.90;97679.55;116448;1181;59591;-75
2021/10/11 08:35:54;;;;;;;17.70;6.70;;;;;;;14.41;33.09;97674.04;116521;1181;71380;-70
2021/10/11 08:38:23;;;;;;;14.80;5.30;;;;;;;14.44;33.40;97674.39;116454;1182;68496;-74
2021/10/11 08:40:52;;;;;;;12.60;6.80;;;;;;;14.57;32.80;97671.97;116405;1182;68847;-73
2021/10/11 08:43:22;;;;;;;17.00;8.40;;;;;;;14.72;32.91;97669.83;116549;1181;59553;-73
2021/10/11 08:45:51;;;;;;;23.30;9.10;;;;;;;14.62;33.49;97668.98;116522;1182;59790;-73
2021/10/11 08:48:20;;;;;;;12.20;5.30;;;;;;;14.95;32.93;97663.89;116427;1177;70683;-75
2021/10/11 08:50:49;;;;;;;16.10;7.20;;;;;;;15.27;32.22;97663.23;116437;1182;68432;-76
2021/10/11 08:53:18;;;;;;;16.30;6.50;;;;;;;15.70;31.63;97658.61;116424;1182;68382;-75
2021/10/11 08:55:48;;;;;;;12.70;7.00;;;;;;;16.30;30.42;97662.05;116447;1182;59548;-74
2021/10/11 08:58:17;;;;;;;10.60;6.20;;;;;;;16.62;30.55;97657.23;116475;1182;59534;-68
2021/10/11 09:00:46;;;;;;;14.10;6.50;;;;;;;17.02;29.96;97657.05;116423;1182;70610;-73
2021/10/11 09:03:18;;;;;;;15.50;6.80;;;;;;;17.82;29.53;97651.61;116398;1182;67574;-72
2021/10/11 09:05:48;;;;;;;12.40;6.40;;;;;;;18.60;28.51;97646.45;116177;1182;69176;-75
2021/10/11 09:08:18;;;;;;;20.00;6.60;;;;;;;19.30;26.49;97645.12;116474;1182;59526;-73
2021/10/11 09:10:55;;;;;;;;;;;;;;;19.49;25.82;97645.54;116529;1181;59552;-72
2021/10/11 09:13:45;;;;;;;11.90;7.00;;;;;;;19.97;24.61;97646.59;116501;1182;70533;-74
2021/10/11 09:16:29;;;;;;;9.90;5.40;;;;;;;19.38;25.54;97642.50;116443;1181;68109;-76
2021/10/11 09:19:08;;;;;;;11.50;5.80;;;;;;;19.21;26.27;97638.91;116375;1182;69279;-74
2021/10/11 09:21:38;;;;;;;11.20;6.20;;;;;;;19.75;25.67;97638.59;116388;1182;59563;-72
2021/10/11 09:24:13;;;;;;;12.00;7.00;;;;;;;19.99;25.10;97640.43;116488;1180;59490;-74
2021/10/11 09:26:48;;;;;;;10.90;5.90;;;;;;;19.86;24.57;97637.83;116416;1182;71434;-73
2021/10/11 09:29:36;;;;;;;14.00;6.50;;;;;;;19.56;25.02;97636.60;116502;1182;68410;-75
2021/10/11 09:32:08;;;;;;;14.80;7.30;;;;;;;19.63;24.98;97640.27;116501;1182;68439;-74
2021/10/11 09:34:42;;;;;;;13.60;6.80;;;;;;;18.81;26.18;97630.01;116469;1182;59561;-69
2021/10/11 09:37:14;;;;;;;15.00;6.00;;;;;;;18.46;26.93;97632.17;116528;1182;59561;-69
2021/10/11 09:39:43;;;;;;;17.90;5.90;;;;;;;18.51;27.08;97629.44;116425;1184;71440;-76
2021/10/11 09:42:14;;;;;;;14.10;7.00;;;;;;;18.91;26.70;97630.02;116442;1183;68551;-70
2021/10/11 09:44:55;;;;;;;13.70;6.70;;;;;;;18.91;26.53;97629.81;116414;1183;68326;-74
2021/10/11 09:47:39;;;;;;;12.00;6.30;;;;;;;18.35;26.99;97623.55;116257;1182;59590;-74
2021/10/11 09:50:10;;;;;;;17.30;7.40;;;;;;;17.94;27.91;97623.76;116467;1182;59551;-76
2021/10/11 09:52:41;;;;;;;16.00;8.30;;;;;;;17.94;28.41;97621.46;116442;1181;70637;-75
2021/10/11 09:55:13;;;;;;;14.90;7.80;;;;;;;18.15;27.70;97614.27;116469;1181;68318;-75
2021/10/11 09:57:42;;;;;;;19.60;7.80;;;;;;;17.87;28.20;97612.55;116437;1182;68847;-76
2021/10/11 10:00:12;;;;;;;19.20;7.80;;;;;;;17.74;28.18;97613.44;116426;1181;59628;-78
2021/10/11 10:02:43;;;;;;;18.20;7.20;;;;;;;17.53;28.68;97613.52;116440;1182;59555;-76
2021/10/11 10:05:24;;;;;;;19.00;8.10;;;;;;;18.17;28.00;97605.17;116327;1183;71466;-77
2021/10/11 10:07:57;;;;;;;18.60;8.20;;;;;;;18.69;26.74;97603.77;116283;1182;68536;-75
2021/10/11 10:10:27;;;;;;;18.60;8.00;;;;;;;17.96;27.98;97602.83;116415;1182;68472;-74
2021/10/11 10:12:56;;;;;;;16.70;7.60;;;;;;;18.24;28.25;97602.20;116464;1181;59907;-73
2021/10/11 10:15:32;;;;;;;15.80;7.40;;;;;;;18.55;27.62;97597.21;116500;1181;59625;-75
2021/10/11 10:18:06;;;;;;;16.30;7.40;;;;;;;18.81;27.46;97594.30;116482;1182;71361;-71
2021/10/11 10:20:48;;;;;;;15.20;9.50;;;;;;;18.88;27.05;97590.95;116445;1182;68582;-73
2021/10/11 10:23:38;;;;;;;19.00;8.90;;;;;;;18.58;27.34;97591.61;116480;1183;69245;-77
2021/10/11 10:26:12;;;;;;;16.30;8.20;;;;;;;18.96;27.25;97593.52;116238;1182;59933;-76
2021/10/11 10:28:50;;;;;;;20.10;8.60;;;;;;;19.47;26.83;97590.31;116460;1182;59628;-75
2021/10/11 10:31:37;;;;;;;13.40;7.50;;;;;;;19.91;25.71;97586.55;116435;1177;71990;-74
2021/10/11 10:34:23;;;;;;;18.60;7.60;;;;;;;19.70;26.43;97583.14;116353;1182;67751;-72
2021/10/11 10:37:09;;;;;;;14.30;6.20;;;;;;;19.86;26.30;97578.10;116395;1182;69391;-77
2021/10/11 10:39:40;;;;;;;13.80;4.90;;;;;;;19.61;26.32;97575.75;116414;1181;59539;-71
2021/10/11 10:42:19;;;;;;;11.10;5.70;;;;;;;19.07;27.17;97570.73;116416;1182;59564;-74
2021/10/11 10:44:48;;;;;;;12.40;5.10;;;;;;;18.91;27.67;97565.98;116488;1182;70631;-73
2021/10/11 10:47:17;;;;;;;9.00;4.70;;;;;;;18.46;28.34;97564.77;116444;1172;68370;-74
2021/10/11 10:49:47;;;;;;;13.30;4.70;;;;;;;18.32;28.62;97565.02;116425;1182;68279;-77
2021/10/11 10:52:19;;;;;;;14.00;4.90;;;;;;;18.02;28.95;97562.64;116418;1182;59947;-74
2021/10/11 10:54:55;;;;;;;19.70;5.40;;;;;;;17.81;29.66;97555.21;116435;1182;59591;-68
2021/10/11 10:57:31;;;;;;;9.90;4.80;;;;;;;17.86;29.50;97557.77;116488;1181;71717;-75
2021/10/11 11:00:04;;;;;;;9.10;4.60;;;;;;;18.04;29.20;97550.27;116429;1181;68407;-75
2021/10/11 11:02:33;;;;;;;14.10;5.60;;;;;;;17.57;30.11;97553.04;116377;1182;69243;-69
2021/10/11 11:05:05;;;;;;;16.90;5.70;;;;;;;17.52;30.45;97550.55;116469;1183;59548;-76
2021/10/11 11:07:37;;;;;;;15.30;5.40;;;;;;;17.53;30.50;97546.70;116488;1182;59520;-76
2021/10/11 11:10:38;;;;;;;15.80;5.10;;;;;;;17.63;30.41;97544.32;116448;1182;70770;-77
2021/10/11 11:13:16;;;;;;;14.40;5.00;;;;;;;17.88;30.23;97539.62;115928;1185;68011;-78
2021/10/11 11:15:51;;;;;;;11.00;5.40;;;;;;;17.97;30.38;97539.23;116001;1185;69474;-77
2021/10/11 11:18:21;;;;;;;13.90;5.10;;;;;;;18.38;30.18;97530.73;116049;1185;59967;-76
2021/10/11 11:20:53;;;;;;;12.80;4.60;;;;;;;18.69;29.81;97528.88;116031;1185;59605;-78
2021/10/11 11:23:33;;;;;;;10.70;4.60;;;;;;;19.01;29.59;97521.64;116057;1185;70682;-69
2021/10/11 11:26:04;;;;;;;11.60;4.60;;;;;;;19.21;29.13;97517.99;116090;1185;68054;-76
2021/10/11 11:28:35;;;;;;;10.80;4.50;;;;;;;19.42;28.93;97520.17;115999;1185;69323;-74
2021/10/11 11:31:10;;;;;;;;;;;;;;;19.82;28.57;97512.63;116071;1185;59545;-72
2021/10/11 11:33:49;;;;;;;12.50;4.30;;;;;;;19.87;28.42;97507.83;115833;1185;59666;-75
2021/10/11 11:36:19;;;;;;;45.00;7.40;;;;;;;20.11;28.09;97505.14;116024;1185;71018;-75
2021/10/11 11:38:47;;;;;;;47.20;7.20;;;;;;;20.12;28.12;97506.02;115984;1185;67945;-76